Terminal Aerodrome Forecast
Issued by NWS

Home | Current Version | Previous Version | Text Only | Print | Product List | Glossary On
Versions: 1 2 3 4 5 6 7 8 9 10 11 12
000
FTUS42 TJSJ 290550
TAFJPS
TAF
TJPS 290550Z 2906/3006 05005KT P6SM FEW030 SCT100
     FM291500 14012KT P6SM FEW030 SCT060
     FM291830 17010G18KT P6SM VCSH SCT022 BKN050
      AMD NOT SKED 2912/3003=

USA.gov is the U.S. government's official web portal to all federal, state and local government web resources and services.